Time;durP1;ratioP1;P1;durP2;ratioP2;P2;SDS_P1;SDS_P2;PMS_P1;PMS_P2;Temp;Humidity;BMP_temperature;BMP_pressure;BME280_temperature;BME280_humidity;BME280_pressure;Samples;Min_cycle;Max_cycle;Signal;HPM_P1;HPM_P2
2022/11/07 00:00:38;;;;;;;10.20;5.80;;;;;;;4.57;100.00;96724.41;105656;1297;22508;-78
2022/11/07 00:03:09;;;;;;;8.20;6.00;;;;;;;4.61;100.00;96727.79;105693;1288;24334;-78
2022/11/07 00:05:43;;;;;;;8.10;6.00;;;;;;;4.64;100.00;96731.52;105704;1297;22456;-78
2022/11/07 00:08:14;;;;;;;8.10;5.20;;;;;;;4.55;100.00;96731.37;105617;1284;22457;-78
2022/11/07 00:10:45;;;;;;;10.20;5.90;;;;;;;4.52;100.00;96733.10;105683;1282;25335;-78
2022/11/07 00:13:16;;;;;;;7.10;5.40;;;;;;;4.50;100.00;96729.46;105666;1287;22471;-78
2022/11/07 00:15:47;;;;;;;7.80;5.50;;;;;;;4.50;100.00;96734.11;105695;1296;22496;-78
2022/11/07 00:18:18;;;;;;;8.10;5.70;;;;;;;4.48;100.00;96733.85;105615;1297;22965;-77
2022/11/07 00:20:49;;;;;;;8.70;6.30;;;;;;;4.51;100.00;96730.92;105661;1297;24331;-78
2022/11/07 00:23:20;;;;;;;8.50;5.10;;;;;;;4.51;100.00;96730.30;105695;1297;22479;-78
2022/11/07 00:25:51;;;;;;;10.80;6.00;;;;;;;4.54;100.00;96729.78;105655;1282;24103;-78
2022/11/07 00:28:23;;;;;;;6.70;5.40;;;;;;;4.61;100.00;96729.77;105647;1295;22621;-78
2022/11/07 00:30:54;;;;;;;7.70;4.90;;;;;;;4.66;100.00;96731.04;105623;1278;25269;-78
2022/11/07 00:33:25;;;;;;;8.30;6.00;;;;;;;4.71;100.00;96730.36;105678;1297;22455;-78
2022/11/07 00:35:56;;;;;;;7.40;5.50;;;;;;;4.76;100.00;96728.92;105671;1297;22619;-78
2022/11/07 00:38:27;;;;;;;8.20;5.50;;;;;;;4.83;100.00;96726.98;105483;1290;167730;-77
2022/11/07 00:41:00;;;;;;;8.30;5.60;;;;;;;4.88;100.00;96724.13;105663;1297;22888;-78
2022/11/07 00:43:31;;;;;;;8.60;5.60;;;;;;;4.94;100.00;96722.39;105659;1288;23887;-78
2022/11/07 00:46:05;;;;;;;8.90;5.90;;;;;;;5.01;100.00;96717.08;105618;1297;22467;-78
2022/11/07 00:48:36;;;;;;;10.50;6.70;;;;;;;5.13;100.00;96716.15;105632;1297;22471;-78
2022/11/07 00:51:09;;;;;;;8.10;6.50;;;;;;;5.22;100.00;96710.40;105669;1278;22465;-78
2022/11/07 00:53:41;;;;;;;9.70;6.50;;;;;;;5.26;100.00;96708.25;105689;1288;22449;-78
2022/11/07 00:56:14;;;;;;;9.00;6.40;;;;;;;5.10;100.00;96713.95;105663;1291;22452;-78
2022/11/07 00:58:45;;;;;;;8.80;6.00;;;;;;;5.03;100.00;96708.13;105597;1297;22533;-78
2022/11/07 01:01:20;;;;;;;7.20;5.50;;;;;;;5.03;100.00;96705.17;105605;1296;24158;-78
2022/11/07 01:06:41;;;;;;;8.50;6.00;;;;;;;5.09;100.00;96703.65;105616;1287;22465;-78
2022/11/07 01:09:15;;;;;;;7.90;6.00;;;;;;;5.12;100.00;96704.68;105605;1282;23514;-78
2022/11/07 01:11:49;;;;;;;10.10;6.80;;;;;;;5.15;100.00;96696.84;105687;1289;22707;-78
2022/11/07 01:14:22;;;;;;;8.90;6.10;;;;;;;5.18;100.00;96695.94;105658;1297;22477;-78
2022/11/07 01:16:53;;;;;;;8.40;6.20;;;;;;;5.20;100.00;96693.75;105661;1287;25207;-78
2022/11/07 01:19:24;;;;;;;8.10;5.90;;;;;;;5.22;100.00;96690.98;105644;1288;24858;-78
2022/11/07 01:21:55;;;;;;;8.80;6.40;;;;;;;5.26;100.00;96686.23;105692;1296;22471;-78
2022/11/07 01:24:28;;;;;;;10.20;6.90;;;;;;;5.29;100.00;96689.48;105609;1285;22472;-78
2022/11/07 01:26:59;;;;;;;12.20;7.90;;;;;;;5.37;100.00;96685.38;105671;1282;23776;-78
2022/11/07 01:29:30;;;;;;;10.00;7.40;;;;;;;5.56;100.00;96686.57;105645;1289;32949;-78
2022/11/07 01:32:02;;;;;;;8.50;6.80;;;;;;;5.71;100.00;96682.39;105665;1288;22497;-78
2022/11/07 01:34:33;;;;;;;9.80;6.10;;;;;;;5.73;100.00;96683.88;105684;1285;24289;-78
2022/11/07 01:37:04;;;;;;;9.60;6.80;;;;;;;5.72;100.00;96677.92;105674;1302;22583;-78
2022/11/07 01:39:35;;;;;;;10.00;6.70;;;;;;;5.70;100.00;96678.38;105650;1300;25425;-78
2022/11/07 01:42:10;;;;;;;8.70;6.40;;;;;;;5.66;100.00;96673.81;105641;1290;22912;-78
2022/11/07 01:44:58;;;;;;;9.40;6.50;;;;;;;5.64;100.00;96671.69;105660;1298;22515;-78
2022/11/07 01:47:33;;;;;;;7.80;6.20;;;;;;;5.64;100.00;96671.31;105612;1297;24172;-77
2022/11/07 01:50:06;;;;;;;9.80;6.50;;;;;;;5.64;100.00;96673.78;105663;1297;22467;-78
2022/11/07 01:52:40;;;;;;;8.80;6.50;;;;;;;5.62;100.00;96670.11;105635;1289;22467;-78
2022/11/07 01:55:16;;;;;;;8.70;6.30;;;;;;;5.63;100.00;96667.48;105675;1292;24343;-78
2022/11/07 01:57:50;;;;;;;9.90;6.00;;;;;;;5.63;100.00;96670.16;105608;1284;22469;-78
2022/11/07 02:00:22;;;;;;;8.00;5.30;;;;;;;5.65;100.00;96669.70;105666;1291;22496;-78
2022/11/07 02:02:57;;;;;;;9.90;7.20;;;;;;;5.67;100.00;96656.77;105620;1288;22452;-78
2022/11/07 02:05:35;;;;;;;9.30;6.90;;;;;;;5.70;100.00;96654.07;105624;1300;22882;-78
2022/11/07 02:08:08;;;;;;;10.50;7.00;;;;;;;5.66;100.00;96657.98;105651;1291;22499;-78
2022/11/07 02:10:42;;;;;;;10.00;6.30;;;;;;;5.66;100.00;96659.92;105696;1287;22488;-78
2022/11/07 02:13:19;;;;;;;9.40;6.60;;;;;;;5.68;100.00;96655.48;105614;1297;24321;-78
2022/11/07 02:15:50;;;;;;;9.90;6.90;;;;;;;5.70;100.00;96652.86;105630;1297;24244;-78
2022/11/07 02:18:23;;;;;;;9.20;7.00;;;;;;;5.73;100.00;96650.42;105620;1277;23504;-78
2022/11/07 02:20:56;;;;;;;9.10;6.50;;;;;;;5.77;100.00;96651.73;105663;1284;22463;-78
2022/11/07 02:23:36;;;;;;;11.20;8.50;;;;;;;5.80;100.00;96647.40;105674;1294;22484;-78
2022/11/07 02:26:07;;;;;;;10.90;8.60;;;;;;;5.78;100.00;96640.17;105671;1292;22467;-78
2022/11/07 02:28:41;;;;;;;10.50;8.30;;;;;;;5.76;100.00;96637.61;105590;1297;25298;-78
2022/11/07 02:31:12;;;;;;;7.40;6.20;;;;;;;5.76;100.00;96632.71;105614;1300;22466;-78
2022/11/07 02:33:43;;;;;;;10.10;7.00;;;;;;;5.77;100.00;96634.38;105640;1300;25487;-78
2022/11/07 02:36:18;;;;;;;11.80;7.60;;;;;;;5.79;100.00;96633.71;105666;1292;22481;-78
2022/11/07 02:38:56;;;;;;;10.90;6.80;;;;;;;5.81;100.00;96635.36;105590;1297;24243;-78
2022/11/07 02:41:31;;;;;;;10.40;6.80;;;;;;;5.85;100.00;96637.23;105660;1297;22444;-78
2022/11/07 02:44:06;;;;;;;9.50;6.70;;;;;;;5.87;100.00;96636.69;105670;1297;22461;-78
2022/11/07 02:46:38;;;;;;;10.40;7.10;;;;;;;5.89;100.00;96635.86;105688;1281;22455;-78
2022/11/07 02:49:09;;;;;;;8.40;6.60;;;;;;;5.91;100.00;96639.48;105620;1298;22672;-78
2022/11/07 02:51:40;;;;;;;9.70;6.60;;;;;;;5.91;100.00;96637.62;105619;1282;22526;-78
2022/11/07 02:54:11;;;;;;;9.50;6.40;;;;;;;5.93;100.00;96643.48;105648;1297;22459;-78
2022/11/07 02:56:42;;;;;;;10.50;6.90;;;;;;;5.94;100.00;96642.33;105666;1284;22544;-78
2022/11/07 02:59:13;;;;;;;10.60;7.10;;;;;;;5.93;100.00;96640.42;105565;1282;24111;-78
2022/11/07 03:01:44;;;;;;;9.80;6.50;;;;;;;5.93;100.00;96640.16;105633;1273;22487;-78
2022/11/07 03:04:16;;;;;;;9.80;7.20;;;;;;;5.93;100.00;96638.74;105680;1299;22462;-78
2022/11/07 03:06:47;;;;;;;10.30;7.10;;;;;;;5.94;100.00;96635.11;105641;1296;22499;-78
2022/11/07 03:09:20;;;;;;;12.20;7.90;;;;;;;5.95;100.00;96633.91;105647;1289;22459;-78
2022/11/07 03:11:52;;;;;;;10.50;7.50;;;;;;;5.99;100.00;96636.31;105670;1282;22462;-78
2022/11/07 03:14:23;;;;;;;12.60;7.60;;;;;;;6.00;100.00;96634.89;105666;1275;22466;-78
2022/11/07 03:16:54;;;;;;;12.70;7.90;;;;;;;6.02;100.00;96631.92;105661;1285;22524;-78
2022/11/07 03:19:25;;;;;;;11.70;8.20;;;;;;;6.06;100.00;96628.90;105594;1281;22479;-78
2022/11/07 03:21:56;;;;;;;13.20;8.70;;;;;;;6.10;100.00;96631.52;105696;1297;22473;-78
2022/11/07 03:24:27;;;;;;;11.90;8.50;;;;;;;6.14;100.00;96629.94;105669;1285;22492;-78
2022/11/07 03:26:58;;;;;;;11.50;7.70;;;;;;;6.14;100.00;96633.46;105683;1284;25446;-78
2022/11/07 03:29:29;;;;;;;12.20;7.90;;;;;;;6.11;100.00;96632.59;105623;1297;22522;-78
2022/11/07 03:32:01;;;;;;;12.70;8.10;;;;;;;6.08;100.00;96631.15;105678;1290;25332;-78
2022/11/07 03:34:32;;;;;;;12.00;8.80;;;;;;;6.06;100.00;96632.34;105647;1297;22464;-78
2022/11/07 03:37:06;;;;;;;12.90;8.10;;;;;;;6.04;100.00;96635.73;105689;1281;22473;-78
2022/11/07 03:39:37;;;;;;;10.90;6.90;;;;;;;5.99;100.00;96635.95;105651;1297;33063;-78
2022/11/07 03:42:08;;;;;;;10.00;7.00;;;;;;;5.94;100.00;96637.86;105673;1297;22454;-78
2022/11/07 03:44:39;;;;;;;10.00;7.10;;;;;;;5.91;100.00;96635.23;105635;1297;22486;-78
2022/11/07 03:47:10;;;;;;;11.70;7.80;;;;;;;5.88;100.00;96634.48;105646;1281;22952;-77
2022/11/07 03:49:44;;;;;;;7.90;6.00;;;;;;;5.85;100.00;96631.56;105663;1297;23778;-78
2022/11/07 03:52:15;;;;;;;11.00;7.90;;;;;;;5.77;100.00;96635.53;105670;1279;22485;-78
2022/11/07 03:54:46;;;;;;;11.90;8.30;;;;;;;5.69;100.00;96637.27;105657;1284;25247;-78
2022/11/07 03:57:17;;;;;;;13.80;9.10;;;;;;;5.76;100.00;96639.20;105681;1297;24258;-77
2022/11/07 03:59:48;;;;;;;15.20;9.40;;;;;;;5.78;100.00;96633.02;105672;1285;25253;-77
2022/11/07 04:02:19;;;;;;;14.50;9.30;;;;;;;5.77;100.00;96637.06;105662;1275;22468;-77
2022/11/07 04:04:53;;;;;;;17.40;11.70;;;;;;;5.65;100.00;96631.84;105682;1291;22449;-78
2022/11/07 04:07:24;;;;;;;13.60;9.80;;;;;;;5.62;100.00;96639.04;105622;1297;22462;-77
2022/11/07 04:09:55;;;;;;;15.30;9.40;;;;;;;5.51;100.00;96641.70;105657;1297;22449;-78
2022/11/07 04:18:01;;;;;;;15.80;11.20;;;;;;;5.65;100.00;96643.88;105635;1285;22617;-78
2022/11/07 04:20:32;;;;;;;16.20;11.60;;;;;;;5.63;100.00;96639.61;105676;1297;22463;-77
2022/11/07 04:23:03;;;;;;;16.20;10.80;;;;;;;5.64;100.00;96640.02;105681;1279;25341;-78
2022/11/07 04:28:22;;;;;;;14.70;10.70;;;;;;;5.56;100.00;96638.65;105611;1296;22525;-77
2022/11/07 04:30:54;;;;;;;16.30;11.50;;;;;;;5.48;100.00;96636.23;105657;1297;23468;-77
2022/11/07 04:33:25;;;;;;;17.20;11.30;;;;;;;5.52;100.00;96635.14;105662;1287;22576;-78
2022/11/07 04:35:56;;;;;;;19.20;13.00;;;;;;;5.56;100.00;96630.39;105664;1297;22471;-78
2022/11/07 04:38:28;;;;;;;16.30;11.70;;;;;;;5.58;100.00;96626.89;105607;1297;22509;-77
2022/11/07 04:40:59;;;;;;;20.30;13.10;;;;;;;5.54;100.00;96624.59;105668;1275;25314;-78
2022/11/07 04:43:33;;;;;;;16.50;11.60;;;;;;;5.56;100.00;96622.14;105641;1297;22450;-78
2022/11/07 04:46:04;;;;;;;17.00;12.20;;;;;;;5.59;100.00;96620.13;105658;1281;22458;-78
2022/11/07 04:48:35;;;;;;;17.70;11.80;;;;;;;5.67;100.00;96625.73;105620;1289;22510;-78
2022/11/07 04:51:07;;;;;;;18.90;11.80;;;;;;;5.79;100.00;96620.91;105665;1300;22459;-78
2022/11/07 04:53:38;;;;;;;19.00;12.40;;;;;;;5.94;100.00;96617.15;105642;1282;22454;-77
2022/11/07 04:56:09;;;;;;;17.90;11.50;;;;;;;6.07;100.00;96616.34;105664;1295;22473;-77
2022/11/07 04:58:40;;;;;;;20.00;12.70;;;;;;;6.15;100.00;96617.10;105670;1297;22468;-77
2022/11/07 05:01:12;;;;;;;20.00;12.30;;;;;;;6.19;100.00;96620.23;105656;1282;26423;-77
2022/11/07 05:03:43;;;;;;;19.90;13.40;;;;;;;6.21;100.00;96617.58;105661;1289;22442;-78
2022/11/07 05:06:16;;;;;;;21.00;11.90;;;;;;;6.23;100.00;96619.29;105648;1297;22539;-77
2022/11/07 05:08:47;;;;;;;18.40;12.40;;;;;;;6.28;100.00;96615.27;105617;1282;22515;-77
2022/11/07 05:11:18;;;;;;;17.90;12.30;;;;;;;6.36;100.00;96614.66;105636;1281;22472;-77
2022/11/07 05:13:49;;;;;;;19.50;12.30;;;;;;;6.43;100.00;96616.02;105679;1297;22511;-77
2022/11/07 05:16:21;;;;;;;18.10;12.30;;;;;;;6.50;100.00;96610.98;105692;1291;22463;-77
2022/11/07 05:18:52;;;;;;;20.00;12.50;;;;;;;6.52;100.00;96614.73;105648;1296;22740;-77
2022/11/07 05:21:23;;;;;;;18.40;12.80;;;;;;;6.52;100.00;96616.11;105666;1292;22476;-77
2022/11/07 05:23:54;;;;;;;16.30;11.30;;;;;;;6.50;100.00;96612.14;105680;1289;22488;-78
2022/11/07 05:26:28;;;;;;;20.20;13.10;;;;;;;6.52;100.00;96612.94;105680;1297;22492;-77
2022/11/07 05:28:59;;;;;;;18.70;12.90;;;;;;;6.56;100.00;96609.85;105616;1289;22469;-77
2022/11/07 05:31:30;;;;;;;17.90;11.80;;;;;;;6.58;100.00;96612.81;105667;1297;22588;-77
2022/11/07 05:34:02;;;;;;;21.10;12.60;;;;;;;6.60;100.00;96614.55;105688;1297;22525;-77
2022/11/07 05:36:33;;;;;;;18.10;12.40;;;;;;;6.59;100.00;96616.52;105665;1281;22517;-77
2022/11/07 05:39:04;;;;;;;17.20;12.50;;;;;;;6.59;100.00;96615.13;105628;1281;22481;-77
2022/11/07 05:41:37;;;;;;;20.20;13.50;;;;;;;6.70;100.00;96622.07;105662;1282;25327;-77
2022/11/07 05:44:10;;;;;;;19.40;12.40;;;;;;;6.77;100.00;96620.08;105647;1287;22548;-78
2022/11/07 05:46:41;;;;;;;19.10;12.20;;;;;;;6.84;100.00;96630.30;105639;1297;22474;-77
2022/11/07 05:49:12;;;;;;;21.20;13.90;;;;;;;6.93;100.00;96631.88;105601;1275;23810;-77
2022/11/07 05:51:43;;;;;;;19.70;12.80;;;;;;;7.03;100.00;96634.27;105676;1294;22458;-77
2022/11/07 05:54:14;;;;;;;18.50;12.30;;;;;;;7.05;100.00;96639.98;105681;1279;22463;-77
2022/11/07 05:56:46;;;;;;;17.30;11.50;;;;;;;7.07;100.00;96641.63;105661;1297;22458;-77
2022/11/07 05:59:17;;;;;;;17.20;11.80;;;;;;;7.12;100.00;96642.86;105662;1289;25432;-77
2022/11/07 06:01:48;;;;;;;16.80;11.40;;;;;;;7.17;100.00;96645.83;105678;1282;22463;-77
2022/11/07 06:04:19;;;;;;;18.00;11.10;;;;;;;7.24;100.00;96642.45;105696;1297;22465;-77
2022/11/07 06:06:50;;;;;;;16.40;11.70;;;;;;;7.35;100.00;96652.64;105684;1297;22462;-78
2022/11/07 06:09:22;;;;;;;18.10;12.20;;;;;;;7.40;100.00;96648.23;105596;1282;22522;-78
2022/11/07 06:11:53;;;;;;;14.30;11.20;;;;;;;7.50;100.00;96649.70;105669;1298;22465;-78
2022/11/07 06:14:25;;;;;;;18.20;12.30;;;;;;;7.55;100.00;96651.56;105632;1291;22607;-78
2022/11/07 06:16:56;;;;;;;18.90;11.50;;;;;;;7.57;100.00;96654.48;105657;1278;22478;-78
2022/11/07 06:19:27;;;;;;;17.80;12.40;;;;;;;7.48;100.00;96659.25;105619;1298;22586;-78
2022/11/07 06:22:00;;;;;;;18.30;12.00;;;;;;;7.39;100.00;96660.83;105638;1300;22482;-78
2022/11/07 06:24:32;;;;;;;17.70;11.60;;;;;;;7.39;100.00;96665.73;105616;1282;24249;-78
2022/11/07 06:27:03;;;;;;;16.40;11.30;;;;;;;7.40;100.00;96668.00;105608;1298;22470;-78
2022/11/07 06:29:35;;;;;;;16.90;12.00;;;;;;;7.42;100.00;96667.85;105644;1283;30795;-78
2022/11/07 06:32:06;;;;;;;15.00;10.80;;;;;;;7.44;100.00;96669.29;105632;1284;22468;-78
2022/11/07 06:34:40;;;;;;;19.00;12.30;;;;;;;7.47;100.00;96670.69;105649;1297;23011;-78
2022/11/07 06:37:11;;;;;;;19.20;12.20;;;;;;;7.49;100.00;96674.08;105614;1271;25332;-77
2022/11/07 06:39:42;;;;;;;15.00;11.80;;;;;;;7.53;100.00;96679.36;105686;1291;22470;-77
2022/11/07 06:42:13;;;;;;;16.60;11.80;;;;;;;7.58;100.00;96684.65;105642;1285;25263;-78
2022/11/07 06:44:44;;;;;;;22.70;14.00;;;;;;;7.66;100.00;96687.02;105671;1297;22977;-78
2022/11/07 06:47:18;;;;;;;44.90;22.60;;;;;;;7.71;100.00;96692.05;105597;1292;26157;-78
2022/11/07 06:49:49;;;;;;;33.10;17.50;;;;;;;7.77;100.00;96694.35;105542;1284;22518;-78
2022/11/07 06:52:21;;;;;;;18.80;13.20;;;;;;;7.86;100.00;96698.03;105653;1290;22528;-78
2022/11/07 06:54:52;;;;;;;17.00;11.60;;;;;;;8.00;100.00;96703.10;105630;1278;22447;-78
2022/11/07 06:57:23;;;;;;;17.80;11.70;;;;;;;8.18;100.00;96702.89;105606;1282;25115;-78
2022/11/07 06:59:54;;;;;;;16.00;11.70;;;;;;;8.30;100.00;96708.73;105665;1300;24322;-78
2022/11/07 07:02:26;;;;;;;17.50;13.20;;;;;;;8.41;100.00;96705.34;105522;1285;22515;-78
2022/11/07 07:04:57;;;;;;;15.40;10.90;;;;;;;8.52;100.00;96704.04;105673;1290;22506;-78
2022/11/07 07:07:31;;;;;;;16.00;10.70;;;;;;;8.63;100.00;96710.46;105551;1278;22478;-78
2022/11/07 07:10:02;;;;;;;16.60;11.40;;;;;;;8.78;100.00;96706.98;105677;1297;22464;-78
2022/11/07 07:12:34;;;;;;;16.90;12.10;;;;;;;8.96;100.00;96706.55;105671;1289;24362;-78
2022/11/07 07:15:09;;;;;;;14.70;11.50;;;;;;;9.14;100.00;96701.90;105686;1271;22614;-78
2022/11/07 07:17:40;;;;;;;16.00;11.20;;;;;;;9.26;100.00;96700.29;105639;1296;25255;-79
2022/11/07 07:20:13;;;;;;;14.20;10.00;;;;;;;9.32;100.00;96697.38;105681;1292;22490;-78
2022/11/07 07:22:45;;;;;;;13.50;9.30;;;;;;;9.40;100.00;96694.06;105722;1285;22777;-79
2022/11/07 07:25:17;;;;;;;14.20;10.40;;;;;;;9.43;100.00;96694.86;105683;1295;22492;-79
2022/11/07 07:27:48;;;;;;;13.70;9.50;;;;;;;9.47;100.00;96692.31;105658;1297;22470;-78
2022/11/07 07:30:19;;;;;;;13.30;9.40;;;;;;;9.53;100.00;96692.55;105653;1297;22508;-79
2022/11/07 07:32:51;;;;;;;13.70;9.90;;;;;;;9.72;100.00;96690.75;105658;1296;24013;-79
2022/11/07 07:35:22;;;;;;;12.30;8.50;;;;;;;9.90;99.99;96686.92;105693;1297;22465;-79
2022/11/07 07:37:56;;;;;;;10.60;7.10;;;;;;;10.12;99.36;96681.63;105638;1297;22429;-78
2022/11/07 07:40:28;;;;;;;11.50;8.40;;;;;;;10.36;97.52;96681.16;105659;1297;25459;-79
2022/11/07 07:42:59;;;;;;;15.50;8.00;;;;;;;10.60;96.03;96679.71;105672;1297;22453;-79
2022/11/07 07:45:42;;;;;;;10.10;6.90;;;;;;;10.76;93.89;96678.61;105676;1275;22591;-79
2022/11/07 07:48:13;;;;;;;13.80;8.30;;;;;;;10.72;92.66;96679.85;105599;1285;22501;-79
2022/11/07 07:50:47;;;;;;;9.00;6.00;;;;;;;10.63;91.64;96677.58;105672;1276;25462;-79
2022/11/07 07:53:18;;;;;;;8.50;4.80;;;;;;;10.53;90.00;96682.31;105706;1296;22470;-80
2022/11/07 07:55:51;;;;;;;9.90;6.40;;;;;;;10.48;89.34;96680.77;105682;1297;22486;-78
2022/11/07 07:58:23;;;;;;;10.70;6.90;;;;;;;10.45;89.34;96684.87;105643;1292;22473;-79
2022/11/07 08:00:57;;;;;;;10.40;5.70;;;;;;;10.42;88.82;96677.95;105627;1282;22479;-79
2022/11/07 08:03:28;;;;;;;6.50;4.20;;;;;;;10.39;88.06;96672.91;105718;1289;22475;-79
2022/11/07 08:06:00;;;;;;;16.50;8.00;;;;;;;10.40;86.78;96676.79;105658;1282;22460;-79
2022/11/07 08:08:32;;;;;;;13.10;8.50;;;;;;;10.46;86.89;96670.87;105584;1282;22451;-79
2022/11/07 08:11:08;;;;;;;11.70;8.10;;;;;;;10.50;87.54;96678.56;105692;1284;22486;-79
2022/11/07 08:13:40;;;;;;;8.60;5.80;;;;;;;10.53;86.56;96673.34;105699;1281;22615;-79
2022/11/07 08:16:11;;;;;;;10.00;4.50;;;;;;;10.61;85.78;96665.30;105687;1297;22467;-79
2022/11/07 08:18:43;;;;;;;9.30;5.70;;;;;;;10.71;84.53;96662.63;105610;1284;25886;-79
2022/11/07 08:21:14;;;;;;;8.10;4.20;;;;;;;10.81;83.13;96651.02;105686;1291;22513;-79
2022/11/07 08:23:46;;;;;;;8.80;4.90;;;;;;;10.83;81.29;96653.39;105645;1281;25364;-79
2022/11/07 08:26:17;;;;;;;8.50;5.30;;;;;;;10.85;81.62;96655.09;105651;1290;25473;-79
2022/11/07 08:28:48;;;;;;;9.70;4.50;;;;;;;10.85;81.19;96656.16;105640;1289;22462;-79
2022/11/07 08:31:20;;;;;;;9.00;5.50;;;;;;;10.83;79.93;96661.52;105703;1282;22647;-80
2022/11/07 08:33:51;;;;;;;6.90;4.40;;;;;;;10.83;79.84;96656.73;105660;1289;24253;-80
2022/11/07 08:36:22;;;;;;;6.20;4.50;;;;;;;10.81;79.51;96653.52;105683;1285;22832;-80
2022/11/07 08:38:53;;;;;;;5.10;3.70;;;;;;;10.81;78.89;96655.48;105611;1269;26159;-79
2022/11/07 08:41:25;;;;;;;6.70;4.00;;;;;;;10.84;78.68;96655.14;105631;1299;22471;-80
2022/11/07 08:43:56;;;;;;;6.20;3.60;;;;;;;10.87;77.72;96654.91;105642;1292;22482;-80
2022/11/07 08:46:28;;;;;;;7.20;3.90;;;;;;;10.90;77.58;96658.97;105646;1287;22689;-79
2022/11/07 08:48:59;;;;;;;6.20;4.00;;;;;;;10.91;77.32;96660.12;105609;1291;22479;-79
2022/11/07 08:51:30;;;;;;;6.90;3.30;;;;;;;10.95;76.62;96669.20;105656;1291;24214;-79
2022/11/07 08:54:01;;;;;;;6.20;3.50;;;;;;;10.98;76.94;96675.77;105672;1275;24639;-79
2022/11/07 08:56:34;;;;;;;4.80;3.10;;;;;;;11.03;75.89;96670.00;105665;1282;25277;-79
2022/11/07 08:59:06;;;;;;;7.30;4.10;;;;;;;11.08;75.30;96667.81;105603;1291;30243;-80
2022/11/07 09:01:37;;;;;;;5.80;4.00;;;;;;;11.13;75.43;96673.94;105658;1282;26396;-79
2022/11/07 09:04:08;;;;;;;5.30;2.70;;;;;;;11.19;75.19;96665.50;105633;1282;22481;-79
2022/11/07 09:06:39;;;;;;;4.10;2.70;;;;;;;11.26;73.65;96667.39;105623;1299;22463;-80
2022/11/07 09:09:11;;;;;;;5.30;3.60;;;;;;;11.34;74.20;96673.48;105606;1300;22515;-80
2022/11/07 09:11:44;;;;;;;5.10;2.70;;;;;;;11.41;73.96;96676.31;105631;1300;22595;-80
2022/11/07 09:14:16;;;;;;;6.70;3.60;;;;;;;11.45;73.65;96673.52;105631;1300;24253;-80
2022/11/07 09:16:47;;;;;;;4.60;2.40;;;;;;;11.48;73.53;96670.49;105653;1299;22469;-79
2022/11/07 09:19:18;;;;;;;4.90;1.80;;;;;;;11.51;72.95;96683.95;105622;1289;22464;-80
2022/11/07 09:21:49;;;;;;;5.30;2.50;;;;;;;11.54;72.50;96687.00;105668;1288;22505;-80
2022/11/07 09:24:20;;;;;;;4.40;2.40;;;;;;;11.55;72.02;96689.45;105695;1297;22960;-79
2022/11/07 09:26:51;;;;;;;5.00;3.20;;;;;;;11.53;70.72;96692.32;105672;1275;24155;-79
2022/11/07 09:29:25;;;;;;;5.30;2.50;;;;;;;11.55;71.56;96685.63;105601;1297;22633;-79
2022/11/07 09:31:56;;;;;;;3.60;2.40;;;;;;;11.59;70.87;96686.27;105652;1285;22463;-80
2022/11/07 09:34:28;;;;;;;5.40;2.90;;;;;;;11.64;71.64;96702.08;105680;1285;22468;-80
2022/11/07 09:36:59;;;;;;;5.90;3.40;;;;;;;11.68;71.06;96694.71;105643;1290;22463;-80
2022/11/07 09:39:30;;;;;;;6.80;3.20;;;;;;;11.69;71.34;96700.28;105602;1283;25218;-80
2022/11/07 09:42:09;;;;;;;4.50;2.60;;;;;;;11.71;70.78;96709.67;105674;1298;25435;-80
2022/11/07 09:44:50;;;;;;;4.30;2.90;;;;;;;11.73;70.38;96710.17;105599;1289;22657;-80
2022/11/07 09:47:30;;;;;;;6.10;2.80;;;;;;;11.74;70.38;96708.88;105602;1291;24263;-79
2022/11/07 09:50:05;;;;;;;5.70;2.70;;;;;;;11.73;70.12;96713.80;105663;1278;22468;-80
2022/11/07 09:52:44;;;;;;;4.80;2.80;;;;;;;11.71;69.55;96709.45;105652;1297;24330;-80
2022/11/07 09:55:21;;;;;;;7.10;3.50;;;;;;;11.68;69.08;96718.17;105692;1291;24320;-79
2022/11/07 09:57:55;;;;;;;4.10;2.50;;;;;;;11.67;68.92;96711.34;105602;1289;22508;-80
2022/11/07 10:00:29;;;;;;;4.10;2.70;;;;;;;11.66;68.68;96713.20;105688;1297;24345;-79
2022/11/07 10:03:02;;;;;;;4.30;3.10;;;;;;;11.70;68.97;96711.86;105669;1282;24298;-79
2022/11/07 10:05:45;;;;;;;3.30;2.30;;;;;;;11.76;69.50;96707.77;105650;1289;22454;-80
2022/11/07 10:08:25;;;;;;;4.80;3.00;;;;;;;11.84;69.44;96711.84;105585;1297;25967;-79
2022/11/07 10:10:59;;;;;;;3.90;2.90;;;;;;;11.86;69.25;96709.52;105663;1297;22467;-79
2022/11/07 10:13:50;;;;;;;3.90;2.80;;;;;;;11.86;69.58;96720.47;105667;1297;22454;-79
2022/11/07 10:16:31;;;;;;;4.30;2.10;;;;;;;11.90;68.78;96712.94;105690;1297;22474;-79
2022/11/07 10:19:16;;;;;;;5.30;2.70;;;;;;;11.97;68.28;96716.95;105621;1282;22497;-80
2022/11/07 10:21:55;;;;;;;5.30;3.40;;;;;;;12.10;69.16;96714.12;105634;1299;24257;-80
2022/11/07 10:24:41;;;;;;;4.70;2.80;;;;;;;12.27;69.75;96714.02;105628;1292;22494;-80
2022/11/07 10:27:13;;;;;;;6.30;3.30;;;;;;;12.36;69.13;96706.88;105574;1285;27580;-80
2022/11/07 10:29:49;;;;;;;6.00;2.60;;;;;;;12.40;69.65;96708.21;105669;1278;22467;-80
2022/11/07 10:32:25;;;;;;;3.30;2.40;;;;;;;12.37;67.38;96701.27;105646;1291;22938;-80
2022/11/07 10:35:06;;;;;;;6.10;3.50;;;;;;;12.29;66.87;96707.56;105668;1277;22490;-80
2022/11/07 10:37:37;;;;;;;5.60;3.20;;;;;;;12.34;67.36;96702.21;105586;1290;22460;-80
2022/11/07 10:40:16;;;;;;;4.60;2.50;;;;;;;12.33;66.83;96704.20;105634;1293;22454;-80
2022/11/07 10:42:49;;;;;;;4.20;2.70;;;;;;;12.23;65.57;96702.74;105653;1299;22462;-80
2022/11/07 10:45:23;;;;;;;4.20;2.90;;;;;;;12.12;64.90;96702.19;105658;1281;24850;-80
2022/11/07 10:48:03;;;;;;;3.40;1.90;;;;;;;12.08;65.52;96702.30;105600;1289;22477;-80
2022/11/07 10:50:35;;;;;;;4.30;2.80;;;;;;;12.01;64.85;96697.45;105671;1283;21751;-80
2022/11/07 10:53:18;;;;;;;2.50;1.80;;;;;;;11.93;64.88;96688.60;105696;1278;22570;-80
2022/11/07 10:55:51;;;;;;;3.80;2.70;;;;;;;11.85;65.07;96685.95;105640;1271;22591;-80
2022/11/07 10:58:26;;;;;;;5.50;3.40;;;;;;;11.80;65.79;96682.33;105627;1275;22465;-80
2022/11/07 11:01:04;;;;;;;5.60;3.10;;;;;;;11.78;66.18;96673.69;105676;1298;22601;-80
2022/11/07 11:03:42;;;;;;;7.20;3.80;;;;;;;11.71;66.53;96681.41;105660;1298;23711;-80
2022/11/07 11:06:22;;;;;;;4.00;2.70;;;;;;;11.67;66.99;96686.60;105641;1298;22490;-80
2022/11/07 11:08:54;;;;;;;3.80;2.50;;;;;;;11.58;67.01;96692.88;105587;1297;22528;-80
2022/11/07 11:11:32;;;;;;;5.50;2.80;;;;;;;11.52;67.23;96693.86;105694;1289;22448;-80
2022/11/07 11:14:11;;;;;;;4.00;2.00;;;;;;;11.50;67.05;96697.66;105675;1297;22461;-80
2022/11/07 11:16:47;;;;;;;3.70;2.20;;;;;;;11.46;66.24;96692.83;105672;1297;22481;-80
2022/11/07 11:19:27;;;;;;;5.90;3.40;;;;;;;11.42;65.67;96695.80;105605;1291;22458;-80
2022/11/07 11:22:00;;;;;;;5.00;3.30;;;;;;;11.41;66.51;96703.50;105638;1299;24255;-80
2022/11/07 11:24:37;;;;;;;4.80;2.90;;;;;;;11.43;66.28;96703.16;105626;1290;22459;-79
2022/11/07 11:27:17;;;;;;;5.20;2.90;;;;;;;11.44;66.43;96697.95;105579;1288;23059;-80
2022/11/07 11:29:56;;;;;;;5.60;2.40;;;;;;;11.43;66.11;96698.29;105615;1297;22474;-80
2022/11/07 11:32:32;;;;;;;5.90;3.30;;;;;;;11.39;66.35;96702.24;105652;1292;25341;-79
2022/11/07 11:35:15;;;;;;;4.70;2.40;;;;;;;11.40;66.86;96704.05;105693;1294;24297;-80
2022/11/07 11:37:51;;;;;;;4.20;3.10;;;;;;;11.41;66.66;96698.77;105610;1291;22471;-80
2022/11/07 11:40:24;;;;;;;3.70;2.80;;;;;;;11.40;67.00;96703.13;105606;1300;25737;-80
2022/11/07 11:43:00;;;;;;;5.70;3.70;;;;;;;11.38;66.68;96701.39;105650;1281;22773;-80
2022/11/07 11:45:40;;;;;;;4.30;3.20;;;;;;;11.40;67.26;96707.60;105607;1280;22482;-80
2022/11/07 11:48:23;;;;;;;6.40;3.40;;;;;;;11.44;67.63;96702.68;105604;1297;22460;-80
2022/11/07 11:50:59;;;;;;;4.90;3.50;;;;;;;11.45;67.27;96706.11;105740;1289;22996;-80
2022/11/07 11:53:31;;;;;;;6.00;3.90;;;;;;;11.45;67.56;96708.77;105707;1289;23006;-80
2022/11/07 11:56:33;;;;;;;6.20;3.30;;;;;;;11.48;67.93;96715.32;105680;1291;23803;-80